sensor_id;sensor_type;location;lat;lon;timestamp;P1;durP1;ratioP1;P2;durP2;ratioP2
61385;SDS011;47256;18.904;-99.054;2022-09-06T00:01:12;11.15;;;2.47;;
61385;SDS011;47256;18.904;-99.054;2022-09-06T00:03:44;11.20;;;2.75;;
61385;SDS011;47256;18.904;-99.054;2022-09-06T00:06:13;17.80;;;14.55;;
61385;SDS011;47256;18.904;-99.054;2022-09-06T00:08:42;12.65;;;9.65;;
61385;SDS011;47256;18.904;-99.054;2022-09-06T00:11:11;7.18;;;1.55;;
61385;SDS011;47256;18.904;-99.054;2022-09-06T00:13:42;5.43;;;1.30;;
61385;SDS011;47256;18.904;-99.054;2022-09-06T00:16:11;7.13;;;1.73;;
61385;SDS011;47256;18.904;-99.054;2022-09-06T00:18:41;2.55;;;1.65;;
61385;SDS011;47256;18.904;-99.054;2022-09-06T00:21:13;11.60;;;7.75;;
61385;SDS011;47256;18.904;-99.054;2022-09-06T00:23:50;7.70;;;6.90;;
61385;SDS011;47256;18.904;-99.054;2022-09-06T00:26:20;3.25;;;2.15;;
61385;SDS011;47256;18.904;-99.054;2022-09-06T00:28:50;2.90;;;1.70;;
61385;SDS011;47256;18.904;-99.054;2022-09-06T00:31:22;4.95;;;1.23;;
61385;SDS011;47256;18.904;-99.054;2022-09-06T00:33:54;2.70;;;1.00;;
61385;SDS011;47256;18.904;-99.054;2022-09-06T00:36:21;2.38;;;0.80;;
61385;SDS011;47256;18.904;-99.054;2022-09-06T00:38:50;5.68;;;0.82;;
61385;SDS011;47256;18.904;-99.054;2022-09-06T00:41:17;2.92;;;1.10;;
61385;SDS011;47256;18.904;-99.054;2022-09-06T00:43:46;5.05;;;1.23;;
61385;SDS011;47256;18.904;-99.054;2022-09-06T00:46:17;4.15;;;0.80;;
61385;SDS011;47256;18.904;-99.054;2022-09-06T00:48:50;2.17;;;0.90;;
61385;SDS011;47256;18.904;-99.054;2022-09-06T00:51:21;8.10;;;1.50;;
61385;SDS011;47256;18.904;-99.054;2022-09-06T00:53:53;2.55;;;1.42;;
61385;SDS011;47256;18.904;-99.054;2022-09-06T00:56:22;6.45;;;1.35;;
61385;SDS011;47256;18.904;-99.054;2022-09-06T00:58:51;3.50;;;0.68;;
61385;SDS011;47256;18.904;-99.054;2022-09-06T01:01:20;6.75;;;1.27;;
61385;SDS011;47256;18.904;-99.054;2022-09-06T01:03:48;5.30;;;1.20;;
61385;SDS011;47256;18.904;-99.054;2022-09-06T01:06:24;3.08;;;1.25;;
61385;SDS011;47256;18.904;-99.054;2022-09-06T01:09:08;3.05;;;0.93;;
61385;SDS011;47256;18.904;-99.054;2022-09-06T01:15:00;3.80;;;1.10;;
61385;SDS011;47256;18.904;-99.054;2022-09-06T01:20:22;2.17;;;1.52;;
61385;SDS011;47256;18.904;-99.054;2022-09-06T01:28:32;5.38;;;1.05;;
61385;SDS011;47256;18.904;-99.054;2022-09-06T01:36:27;0.75;;;0.43;;
61385;SDS011;47256;18.904;-99.054;2022-09-06T01:39:31;2.85;;;1.15;;
61385;SDS011;47256;18.904;-99.054;2022-09-06T01:42:25;1.52;;;0.88;;
61385;SDS011;47256;18.904;-99.054;2022-09-06T01:56:21;2.80;;;1.25;;
61385;SDS011;47256;18.904;-99.054;2022-09-06T02:04:44;3.55;;;0.85;;
61385;SDS011;47256;18.904;-99.054;2022-09-06T02:07:31;6.20;;;1.17;;
61385;SDS011;47256;18.904;-99.054;2022-09-06T02:12:39;2.67;;;1.33;;
61385;SDS011;47256;18.904;-99.054;2022-09-06T02:15:17;3.65;;;1.38;;
61385;SDS011;47256;18.904;-99.054;2022-09-06T02:18:01;3.13;;;1.33;;
61385;SDS011;47256;18.904;-99.054;2022-09-06T02:20:34;5.78;;;1.33;;
61385;SDS011;47256;18.904;-99.054;2022-09-06T02:23:08;4.88;;;1.10;;
61385;SDS011;47256;18.904;-99.054;2022-09-06T02:25:38;3.53;;;1.38;;
61385;SDS011;47256;18.904;-99.054;2022-09-06T02:28:11;3.53;;;0.93;;
61385;SDS011;47256;18.904;-99.054;2022-09-06T02:30:46;3.80;;;0.90;;
61385;SDS011;47256;18.904;-99.054;2022-09-06T02:33:20;4.80;;;1.23;;
61385;SDS011;47256;18.904;-99.054;2022-09-06T02:35:54;4.72;;;1.15;;
61385;SDS011;47256;18.904;-99.054;2022-09-06T02:38:23;3.42;;;1.23;;
61385;SDS011;47256;18.904;-99.054;2022-09-06T02:40:54;3.47;;;1.05;;
61385;SDS011;47256;18.904;-99.054;2022-09-06T02:43:23;2.78;;;0.88;;
61385;SDS011;47256;18.904;-99.054;2022-09-06T02:45:51;4.93;;;1.10;;
61385;SDS011;47256;18.904;-99.054;2022-09-06T02:48:19;1.67;;;1.13;;
61385;SDS011;47256;18.904;-99.054;2022-09-06T02:50:48;5.13;;;1.30;;
61385;SDS011;47256;18.904;-99.054;2022-09-06T02:53:16;4.30;;;1.27;;
61385;SDS011;47256;18.904;-99.054;2022-09-06T02:55:45;3.15;;;1.77;;
61385;SDS011;47256;18.904;-99.054;2022-09-06T02:58:14;4.45;;;1.60;;
61385;SDS011;47256;18.904;-99.054;2022-09-06T03:00:44;4.93;;;1.58;;
61385;SDS011;47256;18.904;-99.054;2022-09-06T03:03:11;4.63;;;1.50;;
61385;SDS011;47256;18.904;-99.054;2022-09-06T03:05:48;2.55;;;1.40;;
61385;SDS011;47256;18.904;-99.054;2022-09-06T03:08:20;8.95;;;1.30;;
61385;SDS011;47256;18.904;-99.054;2022-09-06T03:10:53;1.90;;;0.95;;
61385;SDS011;47256;18.904;-99.054;2022-09-06T03:13:24;5.13;;;1.40;;
61385;SDS011;47256;18.904;-99.054;2022-09-06T03:15:56;3.95;;;1.30;;
61385;SDS011;47256;18.904;-99.054;2022-09-06T03:18:25;2.20;;;1.00;;
61385;SDS011;47256;18.904;-99.054;2022-09-06T03:20:57;3.38;;;0.90;;
61385;SDS011;47256;18.904;-99.054;2022-09-06T03:23:25;4.53;;;1.25;;
61385;SDS011;47256;18.904;-99.054;2022-09-06T03:25:54;2.25;;;0.70;;
61385;SDS011;47256;18.904;-99.054;2022-09-06T03:28:23;2.97;;;1.10;;
61385;SDS011;47256;18.904;-99.054;2022-09-06T03:30:52;2.03;;;0.90;;
61385;SDS011;47256;18.904;-99.054;2022-09-06T03:33:20;5.65;;;0.93;;
61385;SDS011;47256;18.904;-99.054;2022-09-06T03:35:58;4.78;;;0.75;;
61385;SDS011;47256;18.904;-99.054;2022-09-06T03:38:27;4.85;;;1.10;;
61385;SDS011;47256;18.904;-99.054;2022-09-06T03:40:57;4.68;;;1.10;;
61385;SDS011;47256;18.904;-99.054;2022-09-06T03:43:24;0.90;;;0.60;;
61385;SDS011;47256;18.904;-99.054;2022-09-06T03:45:55;3.25;;;0.80;;
61385;SDS011;47256;18.904;-99.054;2022-09-06T03:48:25;2.30;;;0.73;;
61385;SDS011;47256;18.904;-99.054;2022-09-06T03:50:54;1.88;;;0.88;;
61385;SDS011;47256;18.904;-99.054;2022-09-06T03:53:23;4.53;;;0.55;;
61385;SDS011;47256;18.904;-99.054;2022-09-06T03:55:53;6.10;;;1.13;;
61385;SDS011;47256;18.904;-99.054;2022-09-06T03:58:23;0.88;;;0.65;;
61385;SDS011;47256;18.904;-99.054;2022-09-06T04:01:01;2.85;;;1.20;;
61385;SDS011;47256;18.904;-99.054;2022-09-06T04:03:32;5.47;;;0.85;;
61385;SDS011;47256;18.904;-99.054;2022-09-06T04:05:59;6.07;;;0.82;;
61385;SDS011;47256;18.904;-99.054;2022-09-06T04:08:29;0.70;;;0.70;;
61385;SDS011;47256;18.904;-99.054;2022-09-06T04:10:57;6.50;;;0.77;;
61385;SDS011;47256;18.904;-99.054;2022-09-06T04:13:26;5.03;;;0.80;;
61385;SDS011;47256;18.904;-99.054;2022-09-06T04:15:54;3.95;;;0.90;;
61385;SDS011;47256;18.904;-99.054;2022-09-06T04:18:22;9.43;;;1.90;;
61385;SDS011;47256;18.904;-99.054;2022-09-06T04:20:50;4.70;;;0.88;;
61385;SDS011;47256;18.904;-99.054;2022-09-06T04:23:18;4.20;;;0.85;;
61385;SDS011;47256;18.904;-99.054;2022-09-06T04:25:47;9.32;;;0.90;;
61385;SDS011;47256;18.904;-99.054;2022-09-06T04:28:16;2.72;;;0.70;;
61385;SDS011;47256;18.904;-99.054;2022-09-06T04:30:57;4.65;;;0.77;;
61385;SDS011;47256;18.904;-99.054;2022-09-06T04:33:26;5.75;;;0.70;;
61385;SDS011;47256;18.904;-99.054;2022-09-06T04:35:54;2.63;;;0.57;;
61385;SDS011;47256;18.904;-99.054;2022-09-06T04:38:28;1.48;;;0.70;;
61385;SDS011;47256;18.904;-99.054;2022-09-06T04:41:03;8.25;;;0.68;;
61385;SDS011;47256;18.904;-99.054;2022-09-06T04:43:32;3.78;;;0.82;;
61385;SDS011;47256;18.904;-99.054;2022-09-06T04:46:08;2.05;;;0.88;;
61385;SDS011;47256;18.904;-99.054;2022-09-06T04:48:50;3.95;;;0.90;;
61385;SDS011;47256;18.904;-99.054;2022-09-06T04:51:18;4.80;;;0.60;;
61385;SDS011;47256;18.904;-99.054;2022-09-06T04:53:46;7.85;;;1.63;;
61385;SDS011;47256;18.904;-99.054;2022-09-06T04:56:17;5.75;;;0.70;;
61385;SDS011;47256;18.904;-99.054;2022-09-06T04:58:49;5.30;;;0.90;;
61385;SDS011;47256;18.904;-99.054;2022-09-06T05:01:18;7.18;;;0.80;;
61385;SDS011;47256;18.904;-99.054;2022-09-06T05:03:48;3.10;;;1.30;;
61385;SDS011;47256;18.904;-99.054;2022-09-06T05:06:22;2.88;;;0.80;;
61385;SDS011;47256;18.904;-99.054;2022-09-06T05:08:52;1.67;;;0.60;;
61385;SDS011;47256;18.904;-99.054;2022-09-06T05:11:19;5.05;;;0.73;;
61385;SDS011;47256;18.904;-99.054;2022-09-06T05:13:46;3.55;;;0.73;;
61385;SDS011;47256;18.904;-99.054;2022-09-06T05:16:14;5.15;;;0.93;;
61385;SDS011;47256;18.904;-99.054;2022-09-06T05:18:43;2.05;;;0.65;;
61385;SDS011;47256;18.904;-99.054;2022-09-06T05:21:10;7.68;;;0.98;;
61385;SDS011;47256;18.904;-99.054;2022-09-06T05:23:37;5.68;;;1.15;;
61385;SDS011;47256;18.904;-99.054;2022-09-06T05:26:04;6.28;;;0.70;;
61385;SDS011;47256;18.904;-99.054;2022-09-06T05:28:31;7.28;;;0.55;;
61385;SDS011;47256;18.904;-99.054;2022-09-06T05:31:08;4.65;;;0.68;;
61385;SDS011;47256;18.904;-99.054;2022-09-06T05:33:40;5.50;;;0.70;;
61385;SDS011;47256;18.904;-99.054;2022-09-06T05:36:07;2.83;;;0.73;;
61385;SDS011;47256;18.904;-99.054;2022-09-06T05:38:36;5.70;;;0.75;;
61385;SDS011;47256;18.904;-99.054;2022-09-06T05:41:03;4.05;;;0.60;;
61385;SDS011;47256;18.904;-99.054;2022-09-06T05:43:31;4.10;;;0.60;;
61385;SDS011;47256;18.904;-99.054;2022-09-06T05:45:58;2.53;;;1.00;;
61385;SDS011;47256;18.904;-99.054;2022-09-06T05:48:25;4.60;;;0.90;;
61385;SDS011;47256;18.904;-99.054;2022-09-06T05:51:02;4.10;;;0.65;;
61385;SDS011;47256;18.904;-99.054;2022-09-06T05:53:38;5.13;;;0.60;;
61385;SDS011;47256;18.904;-99.054;2022-09-06T05:56:10;1.25;;;0.60;;
61385;SDS011;47256;18.904;-99.054;2022-09-06T05:58:39;5.10;;;1.33;;
61385;SDS011;47256;18.904;-99.054;2022-09-06T06:01:16;0.88;;;0.60;;
61385;SDS011;47256;18.904;-99.054;2022-09-06T06:03:54;0.82;;;0.73;;
61385;SDS011;47256;18.904;-99.054;2022-09-06T06:06:27;4.03;;;0.77;;
61385;SDS011;47256;18.904;-99.054;2022-09-06T06:08:58;6.07;;;0.73;;
61385;SDS011;47256;18.904;-99.054;2022-09-06T06:11:28;5.53;;;0.88;;
61385;SDS011;47256;18.904;-99.054;2022-09-06T06:13:57;7.03;;;0.70;;
61385;SDS011;47256;18.904;-99.054;2022-09-06T06:16:24;4.78;;;0.90;;
61385;SDS011;47256;18.904;-99.054;2022-09-06T06:18:52;6.20;;;0.90;;
61385;SDS011;47256;18.904;-99.054;2022-09-06T06:21:20;8.32;;;1.13;;
61385;SDS011;47256;18.904;-99.054;2022-09-06T06:23:54;8.55;;;0.95;;
61385;SDS011;47256;18.904;-99.054;2022-09-06T06:26:23;14.68;;;1.27;;
61385;SDS011;47256;18.904;-99.054;2022-09-06T06:28:50;6.80;;;0.73;;
61385;SDS011;47256;18.904;-99.054;2022-09-06T06:31:20;2.80;;;1.20;;
61385;SDS011;47256;18.904;-99.054;2022-09-06T06:33:48;5.50;;;0.82;;
61385;SDS011;47256;18.904;-99.054;2022-09-06T06:38:46;8.98;;;1.45;;
61385;SDS011;47256;18.904;-99.054;2022-09-06T06:41:15;6.57;;;1.38;;
61385;SDS011;47256;18.904;-99.054;2022-09-06T06:43:44;4.53;;;1.30;;
61385;SDS011;47256;18.904;-99.054;2022-09-06T06:46:15;4.75;;;1.30;;
61385;SDS011;47256;18.904;-99.054;2022-09-06T06:48:43;4.78;;;1.90;;
61385;SDS011;47256;18.904;-99.054;2022-09-06T06:51:15;4.10;;;2.03;;
61385;SDS011;47256;18.904;-99.054;2022-09-06T06:53:46;3.65;;;1.67;;
61385;SDS011;47256;18.904;-99.054;2022-09-06T06:56:18;8.70;;;1.83;;
61385;SDS011;47256;18.904;-99.054;2022-09-06T06:58:47;6.05;;;2.05;;
61385;SDS011;47256;18.904;-99.054;2022-09-06T07:01:19;5.20;;;2.97;;
61385;SDS011;47256;18.904;-99.054;2022-09-06T07:03:47;6.82;;;2.83;;
61385;SDS011;47256;18.904;-99.054;2022-09-06T07:06:15;5.70;;;2.63;;
61385;SDS011;47256;18.904;-99.054;2022-09-06T07:08:43;5.95;;;2.00;;
61385;SDS011;47256;18.904;-99.054;2022-09-06T07:11:13;4.22;;;1.73;;
61385;SDS011;47256;18.904;-99.054;2022-09-06T07:13:41;7.85;;;1.50;;
61385;SDS011;47256;18.904;-99.054;2022-09-06T07:16:13;15.10;;;1.30;;
61385;SDS011;47256;18.904;-99.054;2022-09-06T07:18:41;4.22;;;1.20;;
61385;SDS011;47256;18.904;-99.054;2022-09-06T07:21:11;12.30;;;1.15;;
61385;SDS011;47256;18.904;-99.054;2022-09-06T07:23:39;8.70;;;1.08;;
61385;SDS011;47256;18.904;-99.054;2022-09-06T07:26:07;4.32;;;0.88;;
61385;SDS011;47256;18.904;-99.054;2022-09-06T07:28:41;10.20;;;1.15;;
61385;SDS011;47256;18.904;-99.054;2022-09-06T07:31:08;8.73;;;1.42;;
61385;SDS011;47256;18.904;-99.054;2022-09-06T07:33:37;7.82;;;1.20;;
61385;SDS011;47256;18.904;-99.054;2022-09-06T07:36:05;10.52;;;1.40;;
61385;SDS011;47256;18.904;-99.054;2022-09-06T07:38:36;15.65;;;1.27;;
61385;SDS011;47256;18.904;-99.054;2022-09-06T07:41:04;5.90;;;1.00;;
61385;SDS011;47256;18.904;-99.054;2022-09-06T07:43:33;6.15;;;1.23;;
61385;SDS011;47256;18.904;-99.054;2022-09-06T07:46:02;5.43;;;1.73;;
61385;SDS011;47256;18.904;-99.054;2022-09-06T07:48:32;6.68;;;1.17;;
61385;SDS011;47256;18.904;-99.054;2022-09-06T07:51:07;8.57;;;1.10;;
61385;SDS011;47256;18.904;-99.054;2022-09-06T07:53:38;6.90;;;1.48;;
61385;SDS011;47256;18.904;-99.054;2022-09-06T07:56:08;10.80;;;1.08;;
61385;SDS011;47256;18.904;-99.054;2022-09-06T07:58:38;14.90;;;1.40;;
61385;SDS011;47256;18.904;-99.054;2022-09-06T08:01:16;6.90;;;1.10;;
61385;SDS011;47256;18.904;-99.054;2022-09-06T08:03:46;6.40;;;1.20;;
61385;SDS011;47256;18.904;-99.054;2022-09-06T08:06:13;4.40;;;1.48;;
61385;SDS011;47256;18.904;-99.054;2022-09-06T08:08:40;9.27;;;1.10;;
61385;SDS011;47256;18.904;-99.054;2022-09-06T08:11:08;4.18;;;1.33;;
61385;SDS011;47256;18.904;-99.054;2022-09-06T08:13:35;3.58;;;1.15;;
61385;SDS011;47256;18.904;-99.054;2022-09-06T08:16:04;10.73;;;1.30;;
61385;SDS011;47256;18.904;-99.054;2022-09-06T08:18:33;9.07;;;1.10;;
61385;SDS011;47256;18.904;-99.054;2022-09-06T08:21:10;5.88;;;1.20;;
61385;SDS011;47256;18.904;-99.054;2022-09-06T08:23:45;7.13;;;1.20;;
61385;SDS011;47256;18.904;-99.054;2022-09-06T08:26:14;4.10;;;1.27;;
61385;SDS011;47256;18.904;-99.054;2022-09-06T08:28:43;5.03;;;1.23;;
61385;SDS011;47256;18.904;-99.054;2022-09-06T08:31:15;2.45;;;1.00;;
61385;SDS011;47256;18.904;-99.054;2022-09-06T08:33:48;17.05;;;2.00;;
61385;SDS011;47256;18.904;-99.054;2022-09-06T08:36:16;12.07;;;1.05;;
61385;SDS011;47256;18.904;-99.054;2022-09-06T08:38:44;6.28;;;1.00;;
61385;SDS011;47256;18.904;-99.054;2022-09-06T08:43:50;5.60;;;1.67;;
61385;SDS011;47256;18.904;-99.054;2022-09-06T08:46:31;4.03;;;1.00;;
61385;SDS011;47256;18.904;-99.054;2022-09-06T08:49:05;2.05;;;0.95;;
61385;SDS011;47256;18.904;-99.054;2022-09-06T08:51:38;5.45;;;1.10;;
61385;SDS011;47256;18.904;-99.054;2022-09-06T08:54:20;17.05;;;1.52;;
61385;SDS011;47256;18.904;-99.054;2022-09-06T08:59:48;4.97;;;1.08;;
61385;SDS011;47256;18.904;-99.054;2022-09-06T09:02:19;8.38;;;1.20;;
61385;SDS011;47256;18.904;-99.054;2022-09-06T09:04:55;4.13;;;1.20;;
61385;SDS011;47256;18.904;-99.054;2022-09-06T09:12:54;6.25;;;0.95;;
61385;SDS011;47256;18.904;-99.054;2022-09-06T09:15:24;5.65;;;1.50;;
61385;SDS011;47256;18.904;-99.054;2022-09-06T09:17:51;7.22;;;1.00;;
61385;SDS011;47256;18.904;-99.054;2022-09-06T09:20:19;11.77;;;1.30;;
61385;SDS011;47256;18.904;-99.054;2022-09-06T09:22:48;9.00;;;1.17;;
61385;SDS011;47256;18.904;-99.054;2022-09-06T09:25:17;13.48;;;1.58;;
61385;SDS011;47256;18.904;-99.054;2022-09-06T09:27:48;10.10;;;1.23;;
61385;SDS011;47256;18.904;-99.054;2022-09-06T09:30:25;8.75;;;1.58;;
61385;SDS011;47256;18.904;-99.054;2022-09-06T09:36:11;6.38;;;1.40;;
61385;SDS011;47256;18.904;-99.054;2022-09-06T09:38:41;9.77;;;1.10;;
61385;SDS011;47256;18.904;-99.054;2022-09-06T09:41:09;3.70;;;1.23;;
61385;SDS011;47256;18.904;-99.054;2022-09-06T09:43:59;7.60;;;2.22;;
61385;SDS011;47256;18.904;-99.054;2022-09-06T09:46:37;9.65;;;1.38;;
61385;SDS011;47256;18.904;-99.054;2022-09-06T09:49:11;8.95;;;1.27;;
61385;SDS011;47256;18.904;-99.054;2022-09-06T09:51:41;5.25;;;1.70;;
61385;SDS011;47256;18.904;-99.054;2022-09-06T09:54:15;8.73;;;1.88;;
61385;SDS011;47256;18.904;-99.054;2022-09-06T09:56:56;7.40;;;1.73;;
61385;SDS011;47256;18.904;-99.054;2022-09-06T09:59:25;4.70;;;0.98;;
61385;SDS011;47256;18.904;-99.054;2022-09-06T10:01:59;6.35;;;0.90;;
61385;SDS011;47256;18.904;-99.054;2022-09-06T10:04:34;9.85;;;0.90;;
61385;SDS011;47256;18.904;-99.054;2022-09-06T10:10:09;4.85;;;0.80;;
61385;SDS011;47256;18.904;-99.054;2022-09-06T10:12:39;8.95;;;1.10;;
61385;SDS011;47256;18.904;-99.054;2022-09-06T10:15:10;5.75;;;0.90;;
61385;SDS011;47256;18.904;-99.054;2022-09-06T10:17:57;7.63;;;1.00;;
61385;SDS011;47256;18.904;-99.054;2022-09-06T10:20:38;8.82;;;1.33;;
61385;SDS011;47256;18.904;-99.054;2022-09-06T10:23:11;4.13;;;1.10;;
61385;SDS011;47256;18.904;-99.054;2022-09-06T10:25:58;5.50;;;1.10;;
61385;SDS011;47256;18.904;-99.054;2022-09-06T10:28:35;5.57;;;0.90;;
61385;SDS011;47256;18.904;-99.054;2022-09-06T10:31:32;12.82;;;1.10;;
61385;SDS011;47256;18.904;-99.054;2022-09-06T10:36:45;7.28;;;1.40;;
61385;SDS011;47256;18.904;-99.054;2022-09-06T10:39:47;4.80;;;0.77;;
61385;SDS011;47256;18.904;-99.054;2022-09-06T10:48:08;10.35;;;1.85;;
61385;SDS011;47256;18.904;-99.054;2022-09-06T10:53:45;7.30;;;1.00;;
61385;SDS011;47256;18.904;-99.054;2022-09-06T10:59:15;5.68;;;0.88;;
61385;SDS011;47256;18.904;-99.054;2022-09-06T11:04:59;7.80;;;1.70;;
61385;SDS011;47256;18.904;-99.054;2022-09-06T11:07:33;4.50;;;1.80;;
61385;SDS011;47256;18.904;-99.054;2022-09-06T11:10:21;9.85;;;1.80;;
61385;SDS011;47256;18.904;-99.054;2022-09-06T11:12:56;7.28;;;2.65;;
61385;SDS011;47256;18.904;-99.054;2022-09-06T11:15:32;9.57;;;2.92;;
61385;SDS011;47256;18.904;-99.054;2022-09-06T11:26:59;6.45;;;1.70;;
61385;SDS011;47256;18.904;-99.054;2022-09-06T11:29:34;8.30;;;1.35;;
61385;SDS011;47256;18.904;-99.054;2022-09-06T11:32:27;4.15;;;1.08;;
61385;SDS011;47256;18.904;-99.054;2022-09-06T11:37:56;5.50;;;1.13;;
61385;SDS011;47256;18.904;-99.054;2022-09-06T11:40:37;5.03;;;1.50;;
61385;SDS011;47256;18.904;-99.054;2022-09-06T11:43:08;3.08;;;1.15;;
61385;SDS011;47256;18.904;-99.054;2022-09-06T11:45:51;7.75;;;1.13;;
61385;SDS011;47256;18.904;-99.054;2022-09-06T11:51:02;10.55;;;1.30;;
61385;SDS011;47256;18.904;-99.054;2022-09-06T11:53:58;4.90;;;1.33;;
61385;SDS011;47256;18.904;-99.054;2022-09-06T11:58:56;5.55;;;0.98;;
61385;SDS011;47256;18.904;-99.054;2022-09-06T12:01:33;8.23;;;1.67;;
61385;SDS011;47256;18.904;-99.054;2022-09-06T12:04:03;5.85;;;1.42;;
61385;SDS011;47256;18.904;-99.054;2022-09-06T12:11:58;8.27;;;1.83;;
61385;SDS011;47256;18.904;-99.054;2022-09-06T12:14:28;11.13;;;2.92;;
61385;SDS011;47256;18.904;-99.054;2022-09-06T12:27:55;11.63;;;3.50;;
61385;SDS011;47256;18.904;-99.054;2022-09-06T12:30:37;8.30;;;2.65;;
61385;SDS011;47256;18.904;-99.054;2022-09-06T12:36:14;3.78;;;1.50;;
61385;SDS011;47256;18.904;-99.054;2022-09-06T12:42:10;5.80;;;1.83;;
61385;SDS011;47256;18.904;-99.054;2022-09-06T12:44:41;8.32;;;0.98;;
61385;SDS011;47256;18.904;-99.054;2022-09-06T12:47:22;7.70;;;1.13;;
61385;SDS011;47256;18.904;-99.054;2022-09-06T12:50:07;12.98;;;1.52;;
61385;SDS011;47256;18.904;-99.054;2022-09-06T12:52:44;6.97;;;1.13;;
61385;SDS011;47256;18.904;-99.054;2022-09-06T12:55:18;7.90;;;1.40;;
61385;SDS011;47256;18.904;-99.054;2022-09-06T12:57:52;18.48;;;1.67;;
61385;SDS011;47256;18.904;-99.054;2022-09-06T13:00:21;5.60;;;1.35;;
61385;SDS011;47256;18.904;-99.054;2022-09-06T13:05:53;15.32;;;2.08;;
61385;SDS011;47256;18.904;-99.054;2022-09-06T13:08:40;8.13;;;1.60;;
61385;SDS011;47256;18.904;-99.054;2022-09-06T13:11:22;9.75;;;1.65;;
61385;SDS011;47256;18.904;-99.054;2022-09-06T13:14:08;5.28;;;1.55;;
61385;SDS011;47256;18.904;-99.054;2022-09-06T13:16:45;6.78;;;1.08;;
61385;SDS011;47256;18.904;-99.054;2022-09-06T13:19:18;4.32;;;1.23;;
61385;SDS011;47256;18.904;-99.054;2022-09-06T13:21:55;8.52;;;2.20;;
61385;SDS011;47256;18.904;-99.054;2022-09-06T13:27:26;9.27;;;1.90;;
61385;SDS011;47256;18.904;-99.054;2022-09-06T13:30:08;8.20;;;1.63;;
61385;SDS011;47256;18.904;-99.054;2022-09-06T13:32:36;9.32;;;2.13;;
61385;SDS011;47256;18.904;-99.054;2022-09-06T13:46:26;12.45;;;2.53;;
61385;SDS011;47256;18.904;-99.054;2022-09-06T13:48:54;15.32;;;2.50;;
61385;SDS011;47256;18.904;-99.054;2022-09-06T13:51:24;4.85;;;2.08;;
61385;SDS011;47256;18.904;-99.054;2022-09-06T13:54:07;9.85;;;1.75;;
61385;SDS011;47256;18.904;-99.054;2022-09-06T13:56:36;10.18;;;2.10;;
61385;SDS011;47256;18.904;-99.054;2022-09-06T13:59:11;10.88;;;1.88;;
61385;SDS011;47256;18.904;-99.054;2022-09-06T14:01:38;4.28;;;2.00;;
61385;SDS011;47256;18.904;-99.054;2022-09-06T14:04:10;4.45;;;1.80;;
61385;SDS011;47256;18.904;-99.054;2022-09-06T14:06:41;4.90;;;1.33;;
61385;SDS011;47256;18.904;-99.054;2022-09-06T14:09:08;5.68;;;1.38;;
61385;SDS011;47256;18.904;-99.054;2022-09-06T14:11:35;18.63;;;1.95;;
61385;SDS011;47256;18.904;-99.054;2022-09-06T14:14:03;3.13;;;1.83;;
61385;SDS011;47256;18.904;-99.054;2022-09-06T14:16:32;7.28;;;1.88;;
61385;SDS011;47256;18.904;-99.054;2022-09-06T14:18:59;6.47;;;1.88;;
61385;SDS011;47256;18.904;-99.054;2022-09-06T14:21:26;9.55;;;1.80;;
61385;SDS011;47256;18.904;-99.054;2022-09-06T14:23:53;12.60;;;2.20;;
61385;SDS011;47256;18.904;-99.054;2022-09-06T14:26:21;7.40;;;1.70;;
61385;SDS011;47256;18.904;-99.054;2022-09-06T14:28:49;10.23;;;2.40;;
61385;SDS011;47256;18.904;-99.054;2022-09-06T14:31:18;7.57;;;2.13;;
61385;SDS011;47256;18.904;-99.054;2022-09-06T14:33:46;9.30;;;2.33;;
61385;SDS011;47256;18.904;-99.054;2022-09-06T14:36:15;7.55;;;2.28;;
61385;SDS011;47256;18.904;-99.054;2022-09-06T14:38:43;12.52;;;2.50;;
61385;SDS011;47256;18.904;-99.054;2022-09-06T14:41:12;8.93;;;2.42;;
61385;SDS011;47256;18.904;-99.054;2022-09-06T14:43:40;7.85;;;2.03;;
61385;SDS011;47256;18.904;-99.054;2022-09-06T14:46:10;3.50;;;2.53;;
61385;SDS011;47256;18.904;-99.054;2022-09-06T14:48:39;13.77;;;3.35;;
61385;SDS011;47256;18.904;-99.054;2022-09-06T14:51:11;10.25;;;2.80;;
61385;SDS011;47256;18.904;-99.054;2022-09-06T14:53:49;8.32;;;2.97;;
61385;SDS011;47256;18.904;-99.054;2022-09-06T14:56:18;15.40;;;5.78;;
61385;SDS011;47256;18.904;-99.054;2022-09-06T14:58:45;11.98;;;6.13;;
61385;SDS011;47256;18.904;-99.054;2022-09-06T15:01:15;19.20;;;5.80;;
61385;SDS011;47256;18.904;-99.054;2022-09-06T15:03:48;4.72;;;2.70;;
61385;SDS011;47256;18.904;-99.054;2022-09-06T15:06:25;15.20;;;3.13;;
61385;SDS011;47256;18.904;-99.054;2022-09-06T15:08:54;11.68;;;2.92;;
61385;SDS011;47256;18.904;-99.054;2022-09-06T15:11:34;11.93;;;2.80;;
61385;SDS011;47256;18.904;-99.054;2022-09-06T15:14:07;8.85;;;2.40;;
61385;SDS011;47256;18.904;-99.054;2022-09-06T15:16:55;5.78;;;2.80;;
61385;SDS011;47256;18.904;-99.054;2022-09-06T15:19:26;7.43;;;2.80;;
61385;SDS011;47256;18.904;-99.054;2022-09-06T15:21:54;8.27;;;2.90;;
61385;SDS011;47256;18.904;-99.054;2022-09-06T15:24:22;3.78;;;3.30;;
61385;SDS011;47256;18.904;-99.054;2022-09-06T15:26:49;5.95;;;3.25;;
61385;SDS011;47256;18.904;-99.054;2022-09-06T15:29:17;15.75;;;3.45;;
61385;SDS011;47256;18.904;-99.054;2022-09-06T15:31:46;4.68;;;2.42;;
61385;SDS011;47256;18.904;-99.054;2022-09-06T15:34:24;7.03;;;2.80;;
61385;SDS011;47256;18.904;-99.054;2022-09-06T15:39:20;4.93;;;2.72;;
61385;SDS011;47256;18.904;-99.054;2022-09-06T15:41:49;6.05;;;2.78;;
61385;SDS011;47256;18.904;-99.054;2022-09-06T15:44:18;8.82;;;2.42;;
61385;SDS011;47256;18.904;-99.054;2022-09-06T15:46:52;7.05;;;2.40;;
61385;SDS011;47256;18.904;-99.054;2022-09-06T15:49:29;10.70;;;2.42;;
61385;SDS011;47256;18.904;-99.054;2022-09-06T15:52:00;16.65;;;4.10;;
61385;SDS011;47256;18.904;-99.054;2022-09-06T15:54:31;10.45;;;3.55;;
61385;SDS011;47256;18.904;-99.054;2022-09-06T15:57:16;6.43;;;2.58;;
61385;SDS011;47256;18.904;-99.054;2022-09-06T15:59:44;6.13;;;3.00;;
61385;SDS011;47256;18.904;-99.054;2022-09-06T16:02:11;16.65;;;2.50;;
61385;SDS011;47256;18.904;-99.054;2022-09-06T16:04:39;6.90;;;3.05;;
61385;SDS011;47256;18.904;-99.054;2022-09-06T16:07:06;8.73;;;2.78;;
61385;SDS011;47256;18.904;-99.054;2022-09-06T16:09:34;5.20;;;1.98;;
61385;SDS011;47256;18.904;-99.054;2022-09-06T16:12:03;5.72;;;2.22;;
61385;SDS011;47256;18.904;-99.054;2022-09-06T16:14:30;3.17;;;1.50;;
61385;SDS011;47256;18.904;-99.054;2022-09-06T16:16:58;4.07;;;0.90;;
61385;SDS011;47256;18.904;-99.054;2022-09-06T16:19:25;3.15;;;1.42;;
61385;SDS011;47256;18.904;-99.054;2022-09-06T16:21:52;9.85;;;2.40;;
61385;SDS011;47256;18.904;-99.054;2022-09-06T16:24:19;2.65;;;2.08;;
61385;SDS011;47256;18.904;-99.054;2022-09-06T16:26:48;4.70;;;1.90;;
61385;SDS011;47256;18.904;-99.054;2022-09-06T16:29:15;5.03;;;1.67;;
61385;SDS011;47256;18.904;-99.054;2022-09-06T16:31:43;2.55;;;2.13;;
61385;SDS011;47256;18.904;-99.054;2022-09-06T16:34:12;6.30;;;2.90;;
61385;SDS011;47256;18.904;-99.054;2022-09-06T16:36:40;5.85;;;2.38;;
61385;SDS011;47256;18.904;-99.054;2022-09-06T16:39:07;4.93;;;2.20;;
61385;SDS011;47256;18.904;-99.054;2022-09-06T16:41:41;13.50;;;2.78;;
61385;SDS011;47256;18.904;-99.054;2022-09-06T16:44:14;7.43;;;2.85;;
61385;SDS011;47256;18.904;-99.054;2022-09-06T16:46:44;7.85;;;2.30;;
61385;SDS011;47256;18.904;-99.054;2022-09-06T16:49:13;6.97;;;2.30;;
61385;SDS011;47256;18.904;-99.054;2022-09-06T16:51:41;6.80;;;2.05;;
61385;SDS011;47256;18.904;-99.054;2022-09-06T16:54:11;9.05;;;2.70;;
61385;SDS011;47256;18.904;-99.054;2022-09-06T16:56:39;7.90;;;2.40;;
61385;SDS011;47256;18.904;-99.054;2022-09-06T16:59:06;10.30;;;1.88;;